createdAt,value
2019-05-26T00:00:14.267Z,99575.88
2019-05-26T00:02:46.318Z,99571.95
2019-05-26T00:05:18.235Z,99581.80
2019-05-26T00:07:50.323Z,99576.69
2019-05-26T00:10:22.335Z,99577.27
2019-05-26T00:12:54.293Z,99579.72
2019-05-26T00:15:26.390Z,99578.84
2019-05-26T00:17:58.435Z,99578.12
2019-05-26T00:20:30.479Z,99576.41
2019-05-26T00:23:03.655Z,99581.37
2019-05-26T00:25:35.765Z,99579.66
2019-05-26T00:28:07.811Z,99580.99
2019-05-26T00:30:39.816Z,99581.48
2019-05-26T00:33:12.845Z,99575.77
2019-05-26T00:35:44.919Z,99581.11
2019-05-26T00:38:17.047Z,99583.90
2019-05-26T00:40:49.124Z,99587.91
2019-05-26T00:43:21.107Z,99592.03
2019-05-26T00:45:52.937Z,99589.47
2019-05-26T00:48:24.950Z,99589.47
2019-05-26T00:50:56.873Z,99587.18
2019-05-26T00:53:28.852Z,99591.19
2019-05-26T00:56:01.049Z,99583.75
2019-05-26T00:58:33.202Z,99583.38
2019-05-26T01:01:05.311Z,99582.04
2019-05-26T01:03:37.346Z,99585.20
2019-05-26T01:06:09.492Z,99584.48
2019-05-26T01:08:41.548Z,99581.89
2019-05-26T01:11:13.336Z,99588.22
2019-05-26T01:13:45.301Z,99590.52
2019-05-26T01:16:17.307Z,99584.68
2019-05-26T01:18:49.219Z,99596.35
2019-05-26T01:21:21.291Z,99593.19
2019-05-26T01:23:53.235Z,99586.13
2019-05-26T01:26:25.319Z,99589.18
2019-05-26T01:28:57.280Z,99585.17
2019-05-26T01:31:29.312Z,99587.23
2019-05-26T01:34:01.362Z,99595.25
2019-05-26T01:36:33.452Z,99593.83
2019-05-26T01:39:07.480Z,99599.52
2019-05-26T01:41:39.459Z,99600.73
2019-05-26T01:44:11.243Z,99598.45
2019-05-26T01:46:43.101Z,99600.53
2019-05-26T01:49:14.971Z,99601.27
2019-05-26T01:51:47.042Z,99603.93
2019-05-26T01:54:18.827Z,99600.68
2019-05-26T01:56:50.817Z,99605.16
2019-05-26T01:59:22.800Z,99602.36
2019-05-26T02:01:58.666Z,99603.70
2019-05-26T02:04:29.464Z,99615.64
2019-05-26T02:07:01.646Z,99614.38
2019-05-26T02:09:34.738Z,99617.05
2019-05-26T02:12:06.798Z,99620.34
2019-05-26T02:14:38.660Z,99627.39
2019-05-26T02:17:10.801Z,99622.89
2019-05-26T02:19:42.719Z,99618.39
2019-05-26T02:22:14.829Z,99624.49
2019-05-26T02:24:46.776Z,99627.55
2019-05-26T02:27:18.657Z,99621.59
2019-05-26T02:29:50.622Z,99632.05
2019-05-26T02:32:22.594Z,99637.27
2019-05-26T02:34:54.709Z,99641.27
2019-05-26T02:37:26.663Z,99639.86
2019-05-26T02:39:59.562Z,99643.87
2019-05-26T02:42:31.611Z,99646.16
2019-05-26T02:45:04.857Z,99644.21
2019-05-26T02:47:36.700Z,99653.22
2019-05-26T02:50:08.674Z,99649.94
2019-05-26T02:52:40.665Z,99651.65
2019-05-26T02:55:12.656Z,99650.20
2019-05-26T02:57:44.715Z,99647.41
2019-05-26T03:00:20.751Z,99651.06
2019-05-26T03:02:52.605Z,99654.75
2019-05-26T03:05:24.525Z,99658.67
2019-05-26T03:07:56.725Z,99656.05
2019-05-26T03:10:28.724Z,99657.94
2019-05-26T03:13:00.834Z,99653.66
2019-05-26T03:15:34.483Z,99650.00
2019-05-26T03:18:07.038Z,99653.56
2019-05-26T03:20:40.197Z,99657.72
2019-05-26T03:23:12.249Z,99653.59
2019-05-26T03:25:44.134Z,99653.36
2019-05-26T03:28:16.057Z,99659.45
2019-05-26T03:30:48.134Z,99660.80
2019-05-26T03:33:19.981Z,99659.45
2019-05-26T03:35:51.896Z,99663.47
2019-05-26T03:38:23.899Z,99668.45
2019-05-26T03:40:55.897Z,99670.16
2019-05-26T03:43:27.950Z,99674.17
2019-05-26T03:46:12.044Z,99674.17
2019-05-26T03:48:44.057Z,99682.78
2019-05-26T03:51:16.025Z,99693.60
2019-05-26T03:53:48.119Z,99696.40
2019-05-26T03:56:20.179Z,99698.36
2019-05-26T03:58:52.093Z,99688.62
2019-05-26T04:01:23.952Z,99694.34
2019-05-26T04:03:55.909Z,99697.36
2019-05-26T04:06:27.787Z,99699.83
2019-05-26T04:08:59.724Z,99700.79
2019-05-26T04:11:31.795Z,99711.48
2019-05-26T04:14:04.073Z,99711.48
2019-05-26T04:16:36.218Z,99713.41
2019-05-26T04:19:08.233Z,99717.80
2019-05-26T04:21:40.067Z,99710.73
2019-05-26T04:24:12.073Z,99721.81
2019-05-26T04:26:44.109Z,99724.48
2019-05-26T04:29:16.219Z,99724.48
2019-05-26T04:31:48.114Z,99722.91
2019-05-26T04:34:20.127Z,99723.29
2019-05-26T04:36:52.104Z,99724.05
2019-05-26T04:39:24.182Z,99727.19
2019-05-26T04:41:56.066Z,99726.72
2019-05-26T04:44:28.114Z,99724.39
2019-05-26T04:47:00.050Z,99720.75
2019-05-26T04:49:37.004Z,99735.02
2019-05-26T04:52:06.103Z,99734.92
2019-05-26T04:54:37.989Z,99729.84
2019-05-26T04:57:09.862Z,99727.30
2019-05-26T04:59:41.694Z,99731.58
2019-05-26T05:02:13.559Z,99736.33
2019-05-26T05:04:45.495Z,99735.03
2019-05-26T05:07:17.537Z,99734.58
2019-05-26T05:09:49.494Z,99733.12
2019-05-26T05:12:21.989Z,99746.52
2019-05-26T05:14:53.808Z,99742.76
2019-05-26T05:17:25.767Z,99744.48
2019-05-26T05:19:57.939Z,99745.81
2019-05-26T05:22:29.912Z,99740.23
2019-05-26T05:25:01.852Z,99745.72
2019-05-26T05:27:33.810Z,99742.31
2019-05-26T05:30:07.459Z,99743.89
2019-05-26T05:32:39.361Z,99745.84
2019-05-26T05:35:11.263Z,99748.51
2019-05-26T05:37:43.136Z,99748.73
2019-05-26T05:40:15.087Z,99746.28
2019-05-26T05:42:47.094Z,99742.86
2019-05-26T05:45:18.899Z,99745.27
2019-05-26T05:47:50.637Z,99753.09
2019-05-26T05:50:22.408Z,99750.86
2019-05-26T05:52:54.190Z,99760.36
2019-05-26T05:55:25.990Z,99751.82
2019-05-26T05:57:57.679Z,99755.32
2019-05-26T06:00:29.628Z,99752.14
2019-05-26T06:03:01.517Z,99750.53
2019-05-26T06:05:33.451Z,99744.63
2019-05-26T06:08:05.346Z,99749.27
2019-05-26T06:10:37.330Z,99743.66
2019-05-26T06:13:10.455Z,99749.16
2019-05-26T06:15:42.426Z,99756.71
2019-05-26T06:18:14.241Z,99759.39
2019-05-26T06:20:46.127Z,99759.77
2019-05-26T06:23:17.946Z,99762.69
2019-05-26T06:25:49.668Z,99762.32
2019-05-26T06:28:21.378Z,99770.02
2019-05-26T06:30:53.205Z,99770.12
2019-05-26T06:33:24.969Z,99763.97
2019-05-26T06:35:56.814Z,99771.77
2019-05-26T06:38:28.510Z,99762.59
2019-05-26T06:41:00.303Z,99769.41
2019-05-26T06:43:32.074Z,99774.28
2019-05-26T06:46:03.883Z,99772.67
2019-05-26T06:48:35.627Z,99776.67
2019-05-26T06:51:07.502Z,99774.04
2019-05-26T06:53:39.535Z,99770.34
2019-05-26T06:56:11.374Z,99776.00
2019-05-26T06:58:43.218Z,99780.86
2019-05-26T07:01:14.923Z,99781.93
2019-05-26T07:03:46.617Z,99778.26
2019-05-26T07:06:18.632Z,99786.02
2019-05-26T07:08:50.569Z,99787.06
2019-05-26T07:11:22.378Z,99790.66
2019-05-26T07:13:54.236Z,99788.26
2019-05-26T07:16:37.649Z,99791.56
2019-05-26T07:18:59.706Z,99787.34
2019-05-26T07:21:32.678Z,99794.21
2019-05-26T07:24:04.493Z,99798.20
2019-05-26T07:26:36.359Z,99794.80
2019-05-26T07:29:08.067Z,99798.69
2019-05-26T07:31:39.926Z,99792.25
2019-05-26T07:34:11.664Z,99801.93
2019-05-26T07:36:43.468Z,99798.36
2019-05-26T07:39:15.277Z,99805.99
2019-05-26T07:41:47.005Z,99809.28
2019-05-26T07:44:18.699Z,99808.30
2019-05-26T07:46:50.511Z,99812.09
2019-05-26T07:49:22.389Z,99815.20
2019-05-26T07:51:54.211Z,99815.22
2019-05-26T07:54:26.256Z,99813.18
2019-05-26T07:56:58.013Z,99812.49
2019-05-26T07:59:29.875Z,99809.61
2019-05-26T08:02:01.671Z,99812.78
2019-05-26T08:04:33.434Z,99823.56
2019-05-26T08:07:05.712Z,99811.09
2019-05-26T08:09:37.506Z,99810.66
2019-05-26T08:12:24.574Z,99815.81
2019-05-26T08:14:42.891Z,99805.56
2019-05-26T08:17:14.688Z,99811.54
2019-05-26T08:19:46.505Z,99811.38
2019-05-26T08:22:18.254Z,99803.61
2019-05-26T08:24:50.146Z,99814.08
2019-05-26T08:27:21.874Z,99822.95
2019-05-26T08:29:55.390Z,99817.84
2019-05-26T08:32:27.102Z,99812.80
2019-05-26T08:34:58.913Z,99815.61
2019-05-26T08:37:30.875Z,99818.11
2019-05-26T08:40:20.407Z,99822.44
2019-05-26T08:42:52.388Z,99820.35
2019-05-26T08:45:24.214Z,99827.38
2019-05-26T08:47:55.987Z,99829.81
2019-05-26T08:50:27.810Z,99836.80
2019-05-26T08:52:59.652Z,99835.55
2019-05-26T08:55:31.416Z,99834.47
2019-05-26T08:58:03.217Z,99828.08
2019-05-26T09:00:34.875Z,99840.63
2019-05-26T09:03:06.819Z,99834.09
2019-05-26T09:05:38.567Z,99835.05
2019-05-26T09:08:10.434Z,99824.83
2019-05-26T09:10:42.102Z,99828.05
2019-05-26T09:13:14.045Z,99821.17
2019-05-26T09:15:46.060Z,99817.33
2019-05-26T09:18:17.910Z,99811.94
2019-05-26T09:20:49.673Z,99826.19
2019-05-26T09:23:21.762Z,99829.42
2019-05-26T09:25:53.531Z,99839.21
2019-05-26T09:28:25.340Z,99837.56
2019-05-26T09:30:57.182Z,99835.78
2019-05-26T09:33:30.068Z,99844.48
2019-05-26T09:36:01.750Z,99830.64
2019-05-26T09:38:33.595Z,99834.03
2019-05-26T09:41:05.442Z,99833.27
2019-05-26T09:43:37.245Z,99834.94
2019-05-26T09:46:09.162Z,99831.09
2019-05-26T09:48:41.335Z,99838.34
2019-05-26T09:51:13.331Z,99839.27
2019-05-26T09:53:45.076Z,99842.48
2019-05-26T09:56:16.945Z,99832.65
2019-05-26T09:58:48.867Z,99840.63
2019-05-26T10:01:20.687Z,99842.42
2019-05-26T10:03:52.534Z,99848.67
2019-05-26T10:06:24.244Z,99847.34
2019-05-26T10:08:56.012Z,99845.81
2019-05-26T10:11:27.855Z,99837.94
2019-05-26T10:13:59.927Z,99831.07
2019-05-26T10:16:32.267Z,99829.91
2019-05-26T10:19:04.715Z,99841.77
2019-05-26T10:21:36.473Z,99843.87
2019-05-26T10:24:08.500Z,99843.03
2019-05-26T10:26:41.159Z,99841.94
2019-05-26T10:29:12.929Z,99835.23
2019-05-26T10:31:44.592Z,99834.64
2019-05-26T10:34:16.553Z,99837.28
2019-05-26T10:36:48.287Z,99836.44
2019-05-26T10:39:20.172Z,99840.86
2019-05-26T10:41:52.016Z,99844.60
2019-05-26T10:44:23.973Z,99851.58
2019-05-26T10:46:55.716Z,99853.56
2019-05-26T10:49:27.412Z,99847.91
2019-05-26T10:51:59.285Z,99855.70
2019-05-26T10:54:31.194Z,99849.20
2019-05-26T10:57:03.075Z,99853.42
2019-05-26T10:59:34.811Z,99844.33
2019-05-26T11:02:08.188Z,99844.73
2019-05-26T11:04:39.997Z,99843.56
2019-05-26T11:07:11.850Z,99841.41
2019-05-26T11:09:43.604Z,99836.72
2019-05-26T11:12:15.559Z,99837.31
2019-05-26T11:14:47.624Z,99835.09
2019-05-26T11:17:19.556Z,99839.22
2019-05-26T11:19:51.436Z,99836.50
2019-05-26T11:22:23.265Z,99853.69
2019-05-26T11:24:56.134Z,99847.13
2019-05-26T11:27:28.987Z,99863.91
2019-05-26T11:30:00.831Z,99859.81
2019-05-26T11:32:32.594Z,99869.97
2019-05-26T11:35:05.322Z,99876.70
2019-05-26T11:37:37.078Z,99875.72
2019-05-26T11:40:08.908Z,99872.16
2019-05-26T11:42:40.614Z,99872.58
2019-05-26T11:45:12.561Z,99876.55
2019-05-26T11:47:45.430Z,99881.77
2019-05-26T11:50:17.295Z,99888.94
2019-05-26T11:52:48.957Z,99890.12
2019-05-26T11:55:20.873Z,99882.06
2019-05-26T11:57:52.619Z,99886.61
2019-05-26T12:00:24.494Z,99882.57
2019-05-26T12:03:00.498Z,99882.57
2019-05-26T12:05:31.637Z,99889.80
2019-05-26T12:08:03.535Z,99885.31
2019-05-26T12:10:35.838Z,99888.14
2019-05-26T12:13:07.589Z,99879.98
2019-05-26T12:15:39.677Z,99880.59
2019-05-26T12:18:11.660Z,99880.26
2019-05-26T12:20:43.730Z,99883.04
2019-05-26T12:23:15.411Z,99879.80
2019-05-26T12:25:48.748Z,99873.88
2019-05-26T12:28:20.641Z,99876.41
2019-05-26T12:30:52.425Z,99868.41
2019-05-26T12:33:24.804Z,99873.23
2019-05-26T12:35:56.977Z,99869.42
2019-05-26T12:38:29.944Z,99874.39
2019-05-26T12:41:01.823Z,99868.38
2019-05-26T12:43:33.695Z,99864.85
2019-05-26T12:46:05.695Z,99862.08
2019-05-26T12:48:37.458Z,99860.98
2019-05-26T12:51:09.321Z,99860.42
2019-05-26T12:53:40.982Z,99855.28
2019-05-26T12:56:13.010Z,99865.36
2019-05-26T12:58:44.858Z,99877.13
2019-05-26T13:01:16.782Z,99896.78
2019-05-26T13:03:48.526Z,99895.91
2019-05-26T13:06:20.316Z,99893.08
2019-05-26T13:08:52.158Z,99893.41
2019-05-26T13:11:24.232Z,99899.38
2019-05-26T13:13:56.267Z,99901.33
2019-05-26T13:16:28.135Z,99910.65
2019-05-26T13:18:59.821Z,99906.61
2019-05-26T13:21:31.533Z,99899.66
2019-05-26T13:24:04.811Z,99897.43
2019-05-26T13:26:38.308Z,99890.19
2019-05-26T13:29:11.390Z,99890.38
2019-05-26T13:31:43.248Z,99889.31
2019-05-26T13:34:15.662Z,99888.25
2019-05-26T13:36:47.470Z,99889.49
2019-05-26T13:39:19.228Z,99889.39
2019-05-26T13:41:50.946Z,99892.42
2019-05-26T13:44:22.607Z,99901.29
2019-05-26T13:46:54.420Z,99907.55
2019-05-26T13:49:26.197Z,99912.93
2019-05-26T13:51:58.077Z,99920.00
2019-05-26T13:54:32.174Z,99929.70
2019-05-26T13:57:04.075Z,99924.45
2019-05-26T13:59:36.013Z,99931.61
2019-05-26T14:02:08.010Z,99946.81
2019-05-26T14:04:39.773Z,99978.73
2019-05-26T14:07:11.638Z,100006.27
2019-05-26T14:09:43.381Z,100012.62
2019-05-26T14:12:15.392Z,99990.56
2019-05-26T14:14:47.223Z,100004.94
2019-05-26T14:17:19.200Z,99999.12
2019-05-26T14:19:51.054Z,99999.95
2019-05-26T14:22:22.792Z,100006.81
2019-05-26T14:24:54.650Z,100003.63
2019-05-26T14:27:26.433Z,99998.74
2019-05-26T14:30:00.004Z,99997.91
2019-05-26T14:32:32.033Z,100001.45
2019-05-26T14:35:05.169Z,100015.25
2019-05-26T14:37:37.051Z,100006.45
2019-05-26T14:40:10.265Z,100019.50
2019-05-26T14:42:42.202Z,100021.47
2019-05-26T14:45:14.052Z,100027.80
2019-05-26T14:47:45.918Z,100027.43
2019-05-26T14:50:17.952Z,100025.62
2019-05-26T14:52:49.881Z,100024.16
2019-05-26T14:55:21.993Z,100028.68
2019-05-26T14:57:53.904Z,100023.56
2019-05-26T15:00:26.025Z,100020.63
2019-05-26T15:02:58.116Z,100023.55
2019-05-26T15:05:30.232Z,100017.81
2019-05-26T15:08:02.374Z,100026.24
2019-05-26T15:10:34.382Z,100024.02
2019-05-26T15:13:06.489Z,100018.44
2019-05-26T15:15:38.451Z,100015.00
2019-05-26T15:18:10.449Z,100024.15
2019-05-26T15:20:42.766Z,100035.14
2019-05-26T15:23:14.741Z,100035.02
2019-05-26T15:25:46.811Z,100033.92
2019-05-26T15:28:18.708Z,100036.48
2019-05-26T15:30:50.681Z,100042.32
2019-05-26T15:33:22.758Z,100036.48
2019-05-26T15:35:55.650Z,100040.73
2019-05-26T15:38:41.997Z,100038.29
2019-05-26T15:41:01.466Z,100049.02
2019-05-26T15:43:33.418Z,100049.78
2019-05-26T15:46:05.436Z,100063.80
2019-05-26T15:48:38.532Z,100066.23
2019-05-26T15:51:10.457Z,100071.48
2019-05-26T15:53:42.301Z,100074.91
2019-05-26T15:56:14.311Z,100076.84
2019-05-26T15:58:46.300Z,100078.19
2019-05-26T16:01:18.428Z,100077.97
2019-05-26T16:03:50.351Z,100078.44
2019-05-26T16:06:23.203Z,100072.81
2019-05-26T16:08:55.035Z,100072.94
2019-05-26T16:11:26.786Z,100082.95
2019-05-26T16:13:59.753Z,100085.88
2019-05-26T16:16:40.595Z,100093.77
2019-05-26T16:19:04.997Z,100099.72
2019-05-26T16:21:36.897Z,100105.45
2019-05-26T16:24:09.855Z,100106.91
2019-05-26T16:26:41.925Z,100115.05
2019-05-26T16:29:14.920Z,100117.98
2019-05-26T16:31:47.050Z,100118.95
2019-05-26T16:34:18.981Z,100116.38
2019-05-26T16:36:50.956Z,100116.16
2019-05-26T16:39:36.082Z,100118.20
2019-05-26T16:41:57.079Z,100125.88
2019-05-26T16:44:29.186Z,100126.12
2019-05-26T16:47:01.097Z,100119.66
2019-05-26T16:49:34.233Z,100119.86
2019-05-26T16:52:06.681Z,100122.19
2019-05-26T16:54:38.501Z,100120.47
2019-05-26T16:57:10.371Z,100120.22
2019-05-26T16:59:42.571Z,100121.30
2019-05-26T17:02:14.596Z,100124.59
2019-05-26T17:04:46.461Z,100124.22
2019-05-26T17:07:18.492Z,100125.18
2019-05-26T17:09:50.584Z,100119.81
2019-05-26T17:12:22.669Z,100120.31
2019-05-26T17:14:54.743Z,100122.50
2019-05-26T17:17:26.633Z,100132.77
2019-05-26T17:19:58.755Z,100133.61
2019-05-26T17:22:30.740Z,100135.91
2019-05-26T17:25:02.813Z,100138.97
2019-05-26T17:27:34.800Z,100145.67
2019-05-26T17:30:06.967Z,100147.39
2019-05-26T17:32:38.791Z,100158.96
2019-05-26T17:35:11.820Z,100155.91
2019-05-26T17:37:43.719Z,100158.23
2019-05-26T17:40:15.829Z,100161.77
2019-05-26T17:42:47.893Z,100169.05
2019-05-26T17:45:20.013Z,100172.34
2019-05-26T17:47:51.929Z,100173.31
2019-05-26T17:50:24.679Z,100173.05
2019-05-26T17:52:56.658Z,100180.86
2019-05-26T17:55:28.648Z,100178.77
2019-05-26T17:58:00.563Z,100182.52
2019-05-26T18:00:32.602Z,100188.96
2019-05-26T18:03:04.686Z,100189.08
2019-05-26T18:05:36.686Z,100192.83
2019-05-26T18:08:08.844Z,100196.02
2019-05-26T18:10:41.240Z,100194.41
2019-05-26T18:13:13.236Z,100198.62
2019-05-26T18:15:45.365Z,100204.56
2019-05-26T18:18:17.256Z,100211.38
2019-05-26T18:20:49.351Z,100217.35
2019-05-26T18:23:21.356Z,100219.77
2019-05-26T18:25:53.263Z,100212.30
2019-05-26T18:28:25.507Z,100220.95
2019-05-26T18:30:57.552Z,100216.17
2019-05-26T18:33:29.585Z,100225.20
2019-05-26T18:36:01.572Z,100222.14
2019-05-26T18:38:33.527Z,100221.88
2019-05-26T18:41:05.506Z,100228.58
2019-05-26T18:43:38.206Z,100228.69
2019-05-26T18:46:10.117Z,100226.00
2019-05-26T18:48:41.921Z,100229.64
2019-05-26T18:51:13.966Z,100229.64
2019-05-26T18:53:46.036Z,100235.88
2019-05-26T18:56:17.892Z,100239.02
2019-05-26T18:58:49.677Z,100235.96
2019-05-26T19:01:21.612Z,100226.58
2019-05-26T19:03:53.471Z,100231.59
2019-05-26T19:06:25.578Z,100240.59
2019-05-26T19:08:57.718Z,100244.23
2019-05-26T19:11:29.681Z,100238.14
2019-05-26T19:14:01.467Z,100236.41
2019-05-26T19:16:33.392Z,100246.28
2019-05-26T19:19:05.409Z,100251.38
2019-05-26T19:21:37.382Z,100254.05
2019-05-26T19:24:09.364Z,100259.03
2019-05-26T19:26:41.442Z,100257.69
2019-05-26T19:29:13.438Z,100261.33
2019-05-26T19:31:45.666Z,100259.98
2019-05-26T19:34:17.638Z,100270.59
2019-05-26T19:36:49.686Z,100270.70
2019-05-26T19:39:21.636Z,100274.72
2019-05-26T19:41:53.727Z,100273.77
2019-05-26T19:44:25.680Z,100279.70
2019-05-26T19:46:57.839Z,100277.13
2019-05-26T19:49:29.914Z,100285.28
2019-05-26T19:52:02.004Z,100289.91
2019-05-26T19:54:33.943Z,100287.23
2019-05-26T19:57:05.951Z,100288.19
2019-05-26T19:59:37.871Z,100289.14
2019-05-26T20:02:18.337Z,100290.09
2019-05-26T20:04:43.863Z,100299.86
2019-05-26T20:07:16.926Z,100299.01
2019-05-26T20:09:49.025Z,100302.64
2019-05-26T20:12:21.110Z,100306.28
2019-05-26T20:14:53.024Z,100305.44
2019-05-26T20:17:25.152Z,100310.06
2019-05-26T20:19:57.115Z,100313.69
2019-05-26T20:22:29.413Z,100321.23
2019-05-26T20:25:01.472Z,100327.20
2019-05-26T20:27:33.580Z,100324.52
2019-05-26T20:30:06.523Z,100327.77
2019-05-26T20:32:38.358Z,100333.51
2019-05-26T20:35:10.302Z,100335.34
2019-05-26T20:37:42.208Z,100339.71
2019-05-26T20:40:14.189Z,100343.38
2019-05-26T20:42:46.259Z,100337.03
2019-05-26T20:45:18.205Z,100338.37
2019-05-26T20:47:50.204Z,100337.42
2019-05-26T20:50:29.013Z,100336.57
2019-05-26T20:52:55.825Z,100334.57
2019-05-26T20:55:27.746Z,100337.25
2019-05-26T20:57:59.640Z,100344.55
2019-05-26T21:00:31.708Z,100343.28
2019-05-26T21:03:03.733Z,100342.44
2019-05-26T21:05:35.710Z,100339.38
2019-05-26T21:08:07.520Z,100338.64
2019-05-26T21:10:39.630Z,100343.12
2019-05-26T21:13:11.592Z,100344.45
2019-05-26T21:15:43.557Z,100350.30
2019-05-26T21:18:15.653Z,100348.97
2019-05-26T21:20:47.542Z,100351.75
2019-05-26T21:23:22.619Z,100353.20
2019-05-26T21:25:53.370Z,100354.16
2019-05-26T21:28:25.395Z,100351.58
2019-05-26T21:30:57.443Z,100353.88
2019-05-26T21:33:29.441Z,100353.49
2019-05-26T21:36:01.317Z,100354.94
2019-05-26T21:38:33.220Z,100360.89
2019-05-26T21:41:05.122Z,100353.81
2019-05-26T21:43:38.154Z,100362.77
2019-05-26T21:46:10.000Z,100358.40
2019-05-26T21:48:41.885Z,100364.70
2019-05-26T21:51:14.028Z,100363.94
2019-05-26T21:53:46.073Z,100366.26
2019-05-26T21:56:18.147Z,100368.55
2019-05-26T21:58:50.220Z,100368.55
2019-05-26T22:01:22.278Z,100373.13
2019-05-26T22:03:54.440Z,100372.39
2019-05-26T22:06:26.439Z,100372.00
2019-05-26T22:08:58.443Z,100376.02
2019-05-26T22:11:31.414Z,100380.14
2019-05-26T22:14:03.427Z,100383.41
2019-05-26T22:16:35.349Z,100383.88
2019-05-26T22:19:07.430Z,100382.64
2019-05-26T22:21:39.354Z,100386.27
2019-05-26T22:24:11.318Z,100388.10
2019-05-26T22:26:43.360Z,100392.68
2019-05-26T22:29:15.361Z,100390.99
2019-05-26T22:31:47.412Z,100396.34
2019-05-26T22:34:19.465Z,100394.72
2019-05-26T22:36:51.464Z,100392.16
2019-05-26T22:39:23.317Z,100400.19
2019-05-26T22:41:55.150Z,100392.33
2019-05-26T22:44:27.069Z,100395.98
2019-05-26T22:46:59.157Z,100396.94
2019-05-26T22:49:31.170Z,100397.89
2019-05-26T22:52:03.219Z,100395.81
2019-05-26T22:54:36.217Z,100398.09
2019-05-26T22:57:08.332Z,100395.03
2019-05-26T22:59:40.353Z,100399.16
2019-05-26T23:02:12.319Z,100403.66
2019-05-26T23:04:44.462Z,100399.84
2019-05-26T23:07:16.554Z,100407.88
2019-05-26T23:09:48.868Z,100405.77
2019-05-26T23:12:20.898Z,100406.72
2019-05-26T23:14:53.075Z,100411.22
2019-05-26T23:17:26.162Z,100403.30
2019-05-26T23:19:58.121Z,100404.73
2019-05-26T23:22:30.354Z,100403.50
2019-05-26T23:25:02.356Z,100400.05
2019-05-26T23:27:34.388Z,100400.05
2019-05-26T23:30:09.149Z,100405.50
2019-05-26T23:32:41.220Z,100405.01
2019-05-26T23:35:13.275Z,100407.89
2019-05-26T23:37:45.414Z,100409.33
2019-05-26T23:40:17.378Z,100412.95
2019-05-26T23:42:49.373Z,100409.53
2019-05-26T23:45:21.474Z,100409.15
2019-05-26T23:47:53.412Z,100414.21
2019-05-26T23:50:25.423Z,100423.08
2019-05-26T23:52:57.394Z,100418.81
2019-05-26T23:55:29.415Z,100428.17
2019-05-26T23:58:01.387Z,100428.34
